Wetterdaten vom Montag, 27. Januar 2020

Temperatur Taupunkt Windchill Luftfeuchte Luftdruck Solarstrahlung Regen ET
(Verdunstung von Wasser)
Wind
Max 3.4 °C
09:40
3 °C
09:40
3.4 °C
09:40
98%
09:30
1018.3 hPa
00:00
114 W/m²
09:40
11.5 km/h
09:25 km/h
Durchschnitt -1 °C -1.4 °C -1 °C 97% 1016.9 hPa 59 W/m² 0.3 mm 0.025 mm 0.3 km/h
Min -2.1 °C
05:10
-2.5 °C
05:10
-2.1 °C
05:10
97%
00:00
1015.2 hPa
09:35
0 km/h (Böe)
00:00 km/h
Zeit
00:00 -0.4 °C -0.8 °C -0.4 °C 97% 1018.3 hPa 0 W/m² 0.0 mm 0.000 mm 0.0 km/h
00:05 -0.4 °C -0.8 °C -0.4 °C 97% 1018.3 hPa 0 W/m² 0.0 mm 0.000 mm 0.0 km/h
00:10 -0.4 °C -0.8 °C -0.4 °C 97% 1018.3 hPa 0 W/m² 0.0 mm 0.000 mm 0.0 km/h
00:15 -0.5 °C -0.9 °C -0.5 °C 97% 1018.3 hPa 0 W/m² 0.0 mm 0.000 mm 0.0 km/h
00:20 -0.5 °C -0.9 °C -0.5 °C 97% 1018.2 hPa 0 W/m² 0.0 mm 0.000 mm 0.0 km/h
00:25 -0.6 °C -1.0 °C -0.6 °C 97% 1018.3 hPa 0 W/m² 0.0 mm 0.000 mm 0.0 km/h
00:30 -0.6 °C -1.0 °C -0.6 °C 97% 1018.3 hPa 0 W/m² 0.0 mm 0.000 mm 0.0 km/h
00:35 -0.6 °C -1.0 °C -0.6 °C 97% 1018.2 hPa 0 W/m² 0.0 mm 0.000 mm 0.0 km/h
00:40 -0.7 °C -1.1 °C -0.7 °C 97% 1018.2 hPa 0 W/m² 0.0 mm 0.000 mm 0.0 km/h
00:45 -0.7 °C -1.1 °C -0.7 °C 97% 1018.2 hPa 0 W/m² 0.0 mm 0.000 mm 0.0 km/h
00:50 -0.7 °C -1.1 °C -0.7 °C 97% 1018.0 hPa 0 W/m² 0.0 mm 0.000 mm 0.0 km/h
00:55 -0.8 °C -1.2 °C -0.8 °C 97% 1017.9 hPa 0 W/m² 0.0 mm 0.000 mm 0.0 km/h
01:00 -0.8 °C -1.2 °C -0.8 °C 97% 1017.8 hPa 0 W/m² 0.0 mm 0.000 mm 0.0 km/h
01:05 -0.8 °C -1.2 °C -0.8 °C 97% 1017.8 hPa 0 W/m² 0.0 mm 0.000 mm 0.0 km/h
01:10 -0.9 °C -1.3 °C -0.9 °C 97% 1017.7 hPa 0 W/m² 0.0 mm 0.000 mm 0.0 km/h
01:15 -0.9 °C -1.3 °C -0.9 °C 97% 1017.8 hPa 0 W/m² 0.0 mm 0.000 mm 0.0 km/h
01:20 -1.0 °C -1.4 °C -1.0 °C 97% 1017.7 hPa 0 W/m² 0.0 mm 0.000 mm 0.0 km/h
01:25 -1.1 °C -1.5 °C -1.1 °C 97% 1017.6 hPa 0 W/m² 0.0 mm 0.000 mm 0.0 km/h
01:30 -1.1 °C -1.5 °C -1.1 °C 97% 1017.7 hPa 0 W/m² 0.0 mm 0.000 mm 0.0 km/h
01:35 -1.2 °C -1.6 °C -1.2 °C 97% 1017.6 hPa 0 W/m² 0.0 mm 0.000 mm 0.0 km/h
01:40 -1.2 °C -1.6 °C -1.2 °C 97% 1017.6 hPa 0 W/m² 0.0 mm 0.000 mm 0.0 km/h
01:45 -1.2 °C -1.6 °C -1.2 °C 97% 1017.5 hPa 0 W/m² 0.0 mm 0.000 mm 0.0 km/h
01:50 -1.3 °C -1.7 °C -1.3 °C 97% 1017.5 hPa 0 W/m² 0.0 mm 0.000 mm 0.0 km/h
01:55 -1.4 °C -1.8 °C -1.4 °C 97% 1017.6 hPa 0 W/m² 0.0 mm 0.000 mm 0.0 km/h
02:00 -1.5 °C -1.9 °C -1.5 °C 97% 1017.6 hPa 0 W/m² 0.0 mm 0.000 mm 0.0 km/h
02:05 -1.5 °C -1.9 °C -1.5 °C 97% 1017.5 hPa 0 W/m² 0.0 mm 0.000 mm 0.0 km/h
02:10 -1.6 °C -2.0 °C -1.6 °C 97% 1017.4 hPa 0 W/m² 0.0 mm 0.000 mm 0.0 km/h
02:15 -1.6 °C -2.0 °C -1.6 °C 97% 1017.5 hPa 0 W/m² 0.0 mm 0.000 mm 0.0 km/h
02:20 -1.6 °C -2.0 °C -1.6 °C 97% 1017.5 hPa 0 W/m² 0.0 mm 0.000 mm 0.0 km/h
02:25 -1.7 °C -2.1 °C -1.7 °C 97% 1017.5 hPa 0 W/m² 0.0 mm 0.000 mm 0.0 km/h
02:30 -1.7 °C -2.1 °C -1.7 °C 97% 1017.5 hPa 0 W/m² 0.0 mm 0.000 mm 0.0 km/h
02:35 -1.7 °C -2.1 °C -1.7 °C 97% 1017.4 hPa 0 W/m² 0.0 mm 0.000 mm 0.0 km/h
02:40 -1.7 °C -2.1 °C -1.7 °C 97% 1017.5 hPa 0 W/m² 0.0 mm 0.000 mm 0.0 km/h
02:45 -1.7 °C -2.1 °C -1.7 °C 97% 1017.5 hPa 0 W/m² 0.0 mm 0.000 mm 0.0 km/h
02:50 -1.8 °C -2.2 °C -1.8 °C 97% 1017.5 hPa 0 W/m² 0.0 mm 0.000 mm 0.0 km/h
02:55 -1.8 °C -2.2 °C -1.8 °C 97% 1017.5 hPa 0 W/m² 0.0 mm 0.000 mm 0.0 km/h
03:00 -1.9 °C -2.3 °C -1.9 °C 97% 1017.4 hPa 0 W/m² 0.0 mm 0.000 mm 0.0 km/h
03:05 -1.9 °C -2.3 °C -1.9 °C 97% 1017.5 hPa 0 W/m² 0.0 mm 0.000 mm 0.0 km/h
03:10 -1.9 °C -2.3 °C -1.9 °C 97% 1017.5 hPa 0 W/m² 0.0 mm 0.000 mm 0.0 km/h
03:15 -1.9 °C -2.3 °C -1.9 °C 97% 1017.4 hPa 0 W/m² 0.0 mm 0.000 mm 0.0 km/h
03:20 -1.9 °C -2.3 °C -1.9 °C 97% 1017.3 hPa 0 W/m² 0.0 mm 0.000 mm 0.0 km/h
03:25 -1.9 °C -2.3 °C -1.9 °C 97% 1017.2 hPa 0 W/m² 0.0 mm 0.000 mm 0.0 km/h
03:30 -1.8 °C -2.2 °C -1.8 °C 97% 1017.2 hPa 0 W/m² 0.0 mm 0.000 mm 0.0 km/h
03:35 -1.8 °C -2.2 °C -1.8 °C 97% 1017.3 hPa 0 W/m² 0.0 mm 0.000 mm 0.0 km/h
03:40 -1.8 °C -2.2 °C -1.8 °C 97% 1017.1 hPa 0 W/m² 0.0 mm 0.000 mm 0.0 km/h
03:45 -1.8 °C -2.2 °C -1.8 °C 97% 1017.1 hPa 0 W/m² 0.0 mm 0.000 mm 0.0 km/h
03:50 -1.8 °C -2.2 °C -1.8 °C 97% 1017.1 hPa 0 W/m² 0.0 mm 0.000 mm 0.0 km/h
03:55 -1.8 °C -2.2 °C -1.8 °C 97% 1017.1 hPa 0 W/m² 0.0 mm 0.000 mm 0.0 km/h
04:00 -1.8 °C -2.2 °C -1.8 °C 97% 1017.0 hPa 0 W/m² 0.0 mm 0.000 mm 0.0 km/h
04:05 -1.8 °C -2.2 °C -1.8 °C 97% 1017.1 hPa 0 W/m² 0.0 mm 0.000 mm 0.0 km/h
04:10 -1.8 °C -2.2 °C -1.8 °C 97% 1017.2 hPa 0 W/m² 0.0 mm 0.000 mm 0.0 km/h
04:15 -1.8 °C -2.2 °C -1.8 °C 97% 1017.1 hPa 0 W/m² 0.0 mm 0.000 mm 0.0 km/h
04:20 -1.8 °C -2.2 °C -1.8 °C 97% 1017.1 hPa 0 W/m² 0.0 mm 0.000 mm 0.0 km/h
04:25 -1.8 °C -2.2 °C -1.8 °C 97% 1017.1 hPa 0 W/m² 0.0 mm 0.000 mm 0.0 km/h
04:30 -1.9 °C -2.3 °C -1.9 °C 97% 1017.0 hPa 0 W/m² 0.0 mm 0.000 mm 0.0 km/h
04:35 -1.9 °C -2.3 °C -1.9 °C 97% 1017.0 hPa 0 W/m² 0.0 mm 0.000 mm 0.0 km/h
04:40 -1.9 °C -2.3 °C -1.9 °C 97% 1017.0 hPa 0 W/m² 0.0 mm 0.000 mm 0.0 km/h
04:45 -1.9 °C -2.3 °C -1.9 °C 97% 1017.0 hPa 0 W/m² 0.0 mm 0.000 mm 0.0 km/h
04:50 -1.9 °C -2.3 °C -1.9 °C 97% 1016.8 hPa 0 W/m² 0.0 mm 0.000 mm 0.0 km/h
04:55 -1.9 °C -2.3 °C -1.9 °C 97% 1016.9 hPa 0 W/m² 0.0 mm 0.000 mm 0.0 km/h
05:00 -1.9 °C -2.3 °C -1.9 °C 97% 1016.8 hPa 0 W/m² 0.0 mm 0.000 mm 0.0 km/h
05:05 -2.0 °C -2.4 °C -2.0 °C 97% 1016.8 hPa 0 W/m² 0.0 mm 0.000 mm 0.0 km/h
05:10 -2.1 °C -2.5 °C -2.1 °C 97% 1016.8 hPa 0 W/m² 0.0 mm 0.000 mm 0.0 km/h
05:15 -2.1 °C -2.5 °C -2.1 °C 97% 1016.8 hPa 0 W/m² 0.0 mm 0.000 mm 0.0 km/h
05:20 -2.0 °C -2.4 °C -2.0 °C 97% 1016.8 hPa 0 W/m² 0.0 mm 0.000 mm 0.0 km/h
05:25 -2.0 °C -2.4 °C -2.0 °C 97% 1016.8 hPa 0 W/m² 0.0 mm 0.000 mm 0.0 km/h
05:30 -1.9 °C -2.3 °C -1.9 °C 97% 1016.8 hPa 0 W/m² 0.0 mm 0.000 mm 0.0 km/h
05:35 -1.9 °C -2.3 °C -1.9 °C 97% 1016.8 hPa 0 W/m² 0.0 mm 0.000 mm 0.0 km/h
05:40 -1.8 °C -2.2 °C -1.8 °C 97% 1016.9 hPa 0 W/m² 0.0 mm 0.000 mm 0.0 km/h
05:45 -1.8 °C -2.2 °C -1.8 °C 97% 1016.9 hPa 0 W/m² 0.0 mm 0.000 mm 0.0 km/h
05:50 -1.8 °C -2.2 °C -1.8 °C 97% 1016.9 hPa 0 W/m² 0.0 mm 0.000 mm 0.0 km/h
05:55 -1.7 °C -2.1 °C -1.7 °C 97% 1016.9 hPa 0 W/m² 0.0 mm 0.000 mm 0.0 km/h
06:00 -1.7 °C -2.1 °C -1.7 °C 97% 1016.8 hPa 0 W/m² 0.0 mm 0.000 mm 0.0 km/h
06:05 -1.7 °C -2.1 °C -1.7 °C 97% 1016.8 hPa 0 W/m² 0.0 mm 0.000 mm 0.0 km/h
06:10 -1.6 °C -2.0 °C -1.6 °C 97% 1016.7 hPa 0 W/m² 0.0 mm 0.000 mm 0.0 km/h
06:15 -1.6 °C -2.0 °C -1.6 °C 97% 1016.6 hPa 0 W/m² 0.0 mm 0.000 mm 0.0 km/h
06:20 -1.5 °C -1.9 °C -1.5 °C 97% 1016.6 hPa 0 W/m² 0.0 mm 0.000 mm 0.0 km/h
06:25 -1.5 °C -1.9 °C -1.5 °C 97% 1016.6 hPa 0 W/m² 0.0 mm 0.000 mm 0.0 km/h
06:30 -1.4 °C -1.8 °C -1.4 °C 97% 1016.6 hPa 0 W/m² 0.0 mm 0.000 mm 0.0 km/h
06:35 -1.3 °C -1.7 °C -1.3 °C 97% 1016.5 hPa 0 W/m² 0.0 mm 0.000 mm 0.0 km/h
06:40 -1.3 °C -1.7 °C -1.3 °C 97% 1016.6 hPa 0 W/m² 0.0 mm 0.000 mm 0.0 km/h
06:45 -1.3 °C -1.7 °C -1.3 °C 97% 1016.6 hPa 0 W/m² 0.0 mm 0.000 mm 0.0 km/h
06:50 -1.3 °C -1.7 °C -1.3 °C 97% 1016.6 hPa 0 W/m² 0.0 mm 0.000 mm 0.0 km/h
06:55 -1.2 °C -1.6 °C -1.2 °C 97% 1016.5 hPa 0 W/m² 0.0 mm 0.000 mm 0.0 km/h
07:00 -1.2 °C -1.6 °C -1.2 °C 97% 1016.5 hPa 0 W/m² 0.0 mm 0.000 mm 0.0 km/h
07:05 -1.2 °C -1.6 °C -1.2 °C 97% 1016.5 hPa 0 W/m² 0.0 mm 0.000 mm 0.0 km/h
07:10 -1.1 °C -1.5 °C -1.1 °C 97% 1016.6 hPa 0 W/m² 0.0 mm 0.000 mm 0.0 km/h
07:15 -1.1 °C -1.5 °C -1.1 °C 97% 1016.6 hPa 0 W/m² 0.0 mm 0.000 mm 0.0 km/h
07:20 -1.0 °C -1.4 °C -1.0 °C 97% 1016.5 hPa 0 W/m² 0.0 mm 0.000 mm 0.0 km/h
07:25 -0.9 °C -1.3 °C -0.9 °C 97% 1016.5 hPa 0 W/m² 0.0 mm 0.000 mm 0.0 km/h
07:30 -0.9 °C -1.3 °C -0.9 °C 97% 1016.5 hPa 0 W/m² 0.0 mm 0.000 mm 0.0 km/h
07:35 -0.9 °C -1.3 °C -0.9 °C 97% 1016.4 hPa 0 W/m² 0.0 mm 0.000 mm 0.0 km/h
07:40 -0.8 °C -1.2 °C -0.8 °C 97% 1016.3 hPa 0 W/m² 0.0 mm 0.000 mm 0.0 km/h
07:45 -0.7 °C -1.1 °C -0.7 °C 97% 1016.2 hPa 0 W/m² 0.0 mm 0.000 mm 0.0 km/h
07:50 -0.6 °C -1.0 °C -0.6 °C 97% 1016.2 hPa 0 W/m² 0.0 mm 0.000 mm 0.0 km/h
07:55 -0.5 °C -0.9 °C -0.5 °C 97% 1016.2 hPa 0 W/m² 0.0 mm 0.000 mm 0.1 km/h
08:00 -0.3 °C -0.7 °C -0.3 °C 97% 1016.1 hPa 0 W/m² 0.0 mm 0.000 mm 0.1 km/h
08:05 -0.3 °C -0.7 °C -0.3 °C 97% 1016.2 hPa 6 W/m² 0.0 mm 0.000 mm 0.0 km/h
08:10 -0.3 °C -0.7 °C -0.3 °C 97% 1015.9 hPa 10 W/m² 0.0 mm 0.000 mm 0.0 km/h
08:15 -0.3 °C -0.7 °C -0.3 °C 97% 1015.9 hPa 13 W/m² 0.0 mm 0.000 mm 0.0 km/h
08:20 -0.2 °C -0.6 °C -0.2 °C 97% 1015.9 hPa 17 W/m² 0.0 mm 0.000 mm 0.1 km/h
08:25 -0.1 °C -0.5 °C -0.1 °C 97% 1015.8 hPa 22 W/m² 0.0 mm 0.000 mm 0.0 km/h
08:30 -0.2 °C -0.6 °C -0.2 °C 97% 1015.8 hPa 29 W/m² 0.0 mm 0.000 mm 0.0 km/h
08:35 -0.2 °C -0.6 °C -0.2 °C 97% 1015.8 hPa 37 W/m² 0.0 mm 0.000 mm 0.0 km/h
08:40 -0.2 °C -0.6 °C -0.2 °C 97% 1015.7 hPa 54 W/m² 0.0 mm 0.000 mm 0.0 km/h
08:45 -0.1 °C -0.5 °C -0.1 °C 97% 1015.8 hPa 69 W/m² 0.0 mm 0.000 mm 0.0 km/h
08:50 0.4 °C -0.0 °C 0.4 °C 97% 1015.8 hPa 74 W/m² 0.0 mm 0.000 mm 3.0 km/h
08:55 0.7 °C 0.3 °C 0.7 °C 97% 1015.8 hPa 73 W/m² 0.0 mm 0.000 mm 0.6 km/h
09:00 1.2 °C 0.8 °C 1.2 °C 97% 1015.7 hPa 71 W/m² 0.0 mm 0.025 mm 2.5 km/h
09:05 1.4 °C 1.0 °C 1.4 °C 97% 1015.7 hPa 68 W/m² 0.0 mm 0.000 mm 0.0 km/h
09:10 1.6 °C 1.2 °C 1.6 °C 97% 1015.5 hPa 61 W/m² 0.0 mm 0.000 mm 0.0 km/h
09:15 1.2 °C 0.8 °C 1.2 °C 97% 1015.4 hPa 71 W/m² 0.0 mm 0.000 mm 0.0 km/h
09:20 1.6 °C 1.2 °C 1.6 °C 97% 1015.4 hPa 84 W/m² 0.0 mm 0.000 mm 3.6 km/h
09:25 2.8 °C 2.4 °C -1.4 °C 97% 1015.3 hPa 96 W/m² 0.3 mm 0.000 mm 11.5 km/h
09:30 3.2 °C 2.9 °C 2.7 °C 98% 1015.3 hPa 105 W/m² 0.0 mm 0.000 mm 6.9 km/h
09:35 3.2 °C 2.8 °C 3.2 °C 97% 1015.2 hPa 108 W/m² 0.0 mm 0.000 mm 2.9 km/h
09:40 3.4 °C 3.0 °C 3.4 °C 97% 1015.2 hPa 114 W/m² 0.0 mm 0.000 mm 0.0 km/h